createdAt,value
2022-11-04T00:04:23.668Z,11.10
2022-11-04T00:10:45.439Z,11.00
2022-11-04T00:17:06.327Z,11.10
2022-11-04T00:23:26.744Z,11.00
2022-11-04T00:29:28.550Z,11.00
2022-11-04T00:35:30.380Z,11.00
2022-11-04T00:41:32.167Z,11.00
2022-11-04T00:47:38.599Z,11.00
2022-11-04T00:53:40.522Z,11.10
2022-11-04T00:59:42.484Z,11.10
2022-11-04T01:05:44.363Z,11.20
2022-11-04T01:11:46.248Z,11.20
2022-11-04T01:17:48.111Z,11.20
2022-11-04T01:23:49.905Z,11.20
2022-11-04T01:29:51.719Z,11.20
2022-11-04T01:35:53.597Z,11.30
2022-11-04T01:41:55.522Z,11.30
2022-11-04T01:48:11.266Z,11.40
2022-11-04T01:54:19.691Z,11.60
2022-11-04T02:00:22.400Z,11.60
2022-11-04T02:06:40.781Z,11.60
2022-11-04T02:12:59.052Z,11.60
2022-11-04T02:19:17.955Z,11.50
2022-11-04T02:25:55.378Z,11.50
2022-11-04T02:32:10.183Z,11.50
2022-11-04T02:38:36.838Z,11.40
2022-11-04T02:45:00.630Z,11.40
2022-11-04T02:51:15.158Z,11.50
2022-11-04T02:57:22.881Z,11.50
2022-11-04T03:03:29.292Z,11.60
2022-11-04T03:09:43.523Z,11.50
2022-11-04T03:16:06.303Z,11.50
2022-11-04T03:22:13.805Z,11.50
2022-11-04T03:28:30.541Z,11.50
2022-11-04T03:34:35.920Z,11.60
2022-11-04T03:40:47.196Z,11.60
2022-11-04T03:47:11.246Z,11.60
2022-11-04T03:53:16.657Z,11.60
2022-11-04T03:59:52.290Z,11.50
2022-11-04T04:06:03.778Z,11.20
2022-11-04T04:12:18.949Z,11.00
2022-11-04T04:18:36.303Z,10.80
2022-11-04T04:25:11.501Z,10.70
2022-11-04T04:31:39.296Z,10.70
2022-11-04T04:37:48.298Z,10.50
2022-11-04T04:44:27.759Z,10.30
2022-11-04T04:50:49.438Z,10.20
2022-11-04T04:56:52.194Z,10.30
2022-11-04T05:02:55.149Z,10.20
2022-11-04T05:09:05.180Z,10.30
2022-11-04T05:15:23.045Z,10.40
2022-11-04T05:21:36.559Z,10.40
2022-11-04T05:28:42.769Z,10.50
2022-11-04T05:35:22.606Z,10.50
2022-11-04T05:41:32.337Z,10.50
2022-11-04T05:47:41.271Z,10.60
2022-11-04T05:53:49.191Z,10.60
2022-11-04T05:59:51.202Z,10.60
2022-11-04T06:05:52.974Z,10.50
2022-11-04T06:11:54.751Z,10.30
2022-11-04T06:17:56.591Z,10.40
2022-11-04T06:23:59.713Z,10.50
2022-11-04T06:30:01.774Z,10.30
2022-11-04T06:36:06.215Z,10.20
2022-11-04T06:42:08.273Z,10.20
2022-11-04T06:48:12.773Z,10.20
2022-11-04T06:54:15.612Z,10.10
2022-11-04T07:00:18.261Z,10.10
2022-11-04T07:06:21.334Z,10.10
2022-11-04T07:12:24.687Z,10.20
2022-11-04T07:18:27.166Z,10.20
2022-11-04T07:24:29.015Z,10.20
2022-11-04T07:30:31.382Z,10.30
2022-11-04T07:36:36.858Z,10.50
2022-11-04T07:42:43.813Z,10.60
2022-11-04T07:48:51.542Z,10.60
2022-11-04T07:54:53.324Z,10.60
2022-11-04T08:01:03.918Z,10.70
2022-11-04T08:07:10.810Z,10.80
2022-11-04T08:13:12.566Z,10.80
2022-11-04T08:19:14.348Z,10.90
2022-11-04T08:25:16.863Z,10.90
2022-11-04T08:31:25.286Z,10.90
2022-11-04T08:37:27.073Z,11.10
2022-11-04T08:43:29.311Z,11.30
2022-11-04T08:49:31.300Z,11.50
2022-11-04T08:55:33.479Z,11.50
2022-11-04T09:01:36.754Z,11.50
2022-11-04T09:07:38.816Z,11.60
2022-11-04T09:13:41.147Z,11.70
2022-11-04T09:19:43.221Z,11.70
2022-11-04T09:25:48.197Z,11.70
2022-11-04T09:31:50.309Z,11.90
2022-11-04T09:37:52.113Z,12.10
2022-11-04T09:44:11.458Z,12.30
2022-11-04T09:50:25.203Z,12.60
2022-11-04T09:56:37.449Z,12.80
2022-11-04T10:02:51.993Z,12.80
2022-11-04T10:08:59.697Z,12.90
2022-11-04T10:15:32.493Z,13.00
2022-11-04T10:22:03.686Z,13.00
2022-11-04T10:28:09.279Z,13.00
2022-11-04T10:34:37.519Z,12.80
2022-11-04T10:40:41.792Z,12.70
2022-11-04T10:46:51.356Z,12.70
2022-11-04T10:53:02.072Z,12.60
2022-11-04T10:59:25.204Z,12.90
2022-11-04T11:05:28.812Z,13.10
2022-11-04T11:12:49.342Z,13.20
2022-11-04T11:18:41.882Z,13.30
2022-11-04T11:24:44.144Z,13.40
2022-11-04T11:30:46.652Z,13.50
2022-11-04T11:36:50.086Z,13.40
2022-11-04T11:42:52.501Z,13.60
2022-11-04T11:49:01.535Z,13.50
2022-11-04T11:55:34.087Z,13.50
2022-11-04T12:01:42.427Z,13.60
2022-11-04T12:14:57.115Z,13.40
2022-11-04T12:21:24.392Z,13.50
2022-11-04T12:27:35.340Z,13.20
2022-11-04T12:33:58.004Z,13.20
2022-11-04T12:40:21.990Z,13.20
2022-11-04T12:46:39.133Z,13.30
2022-11-04T12:53:18.870Z,13.60
2022-11-04T12:59:49.139Z,13.70
2022-11-04T13:06:02.839Z,13.40
2022-11-04T13:12:40.341Z,13.10
2022-11-04T13:18:43.332Z,13.00
2022-11-04T13:25:14.836Z,13.00
2022-11-04T13:31:28.043Z,13.10
2022-11-04T13:37:43.127Z,13.10
2022-11-04T13:43:52.900Z,13.00
2022-11-04T13:49:56.186Z,13.00
2022-11-04T13:56:09.520Z,13.00
2022-11-04T14:02:19.824Z,13.00
2022-11-04T14:08:21.756Z,13.10
2022-11-04T14:14:23.578Z,13.10
2022-11-04T14:20:29.900Z,13.10
2022-11-04T14:26:44.629Z,13.10
2022-11-04T14:32:46.458Z,13.10
2022-11-04T14:38:56.352Z,13.00
2022-11-04T14:44:58.467Z,13.00
2022-11-04T14:51:00.614Z,13.00
2022-11-04T14:57:19.422Z,12.80
2022-11-04T15:04:09.384Z,12.60
2022-11-04T15:09:49.820Z,12.40
2022-11-04T15:15:55.416Z,12.20
2022-11-04T15:21:59.466Z,12.00
2022-11-04T15:28:01.369Z,11.80
2022-11-04T15:34:10.384Z,11.60
2022-11-04T15:40:17.776Z,11.30
2022-11-04T15:46:20.360Z,11.10
2022-11-04T15:52:25.229Z,10.90
2022-11-04T15:58:27.870Z,10.80
2022-11-04T16:04:30.565Z,10.60
2022-11-04T16:10:36.368Z,10.50
2022-11-04T16:16:38.237Z,10.30
2022-11-04T16:22:43.741Z,10.20
2022-11-04T16:28:45.602Z,10.10
2022-11-04T16:34:49.973Z,10.00
2022-11-04T16:40:51.872Z,9.90
2022-11-04T16:46:54.369Z,9.90
2022-11-04T16:52:56.292Z,9.90
2022-11-04T16:58:58.134Z,9.80
2022-11-04T17:04:59.951Z,9.70
2022-11-04T17:11:02.545Z,9.60
2022-11-04T17:17:04.684Z,9.60
2022-11-04T17:23:06.696Z,9.60
2022-11-04T17:29:14.425Z,9.60
2022-11-04T17:35:18.987Z,9.60
2022-11-04T17:41:39.242Z,9.60
2022-11-04T17:47:41.300Z,9.70
2022-11-04T17:53:43.047Z,9.70
2022-11-04T17:59:44.894Z,9.70
2022-11-04T18:05:46.672Z,9.70
2022-11-04T18:19:12.694Z,9.70
2022-11-04T18:25:40.097Z,9.60
2022-11-04T18:31:47.802Z,9.60
2022-11-04T18:37:50.986Z,9.50
2022-11-04T18:43:52.954Z,9.50
2022-11-04T18:49:55.099Z,9.50
2022-11-04T18:56:10.953Z,9.40
2022-11-04T19:02:23.264Z,9.30
2022-11-04T19:08:25.376Z,9.20
2022-11-04T19:14:27.152Z,9.10
2022-11-04T19:20:28.949Z,9.10
2022-11-04T19:26:33.624Z,9.00
2022-11-04T19:32:35.523Z,8.80
2022-11-04T19:38:37.694Z,8.70
2022-11-04T19:44:39.576Z,8.40
2022-11-04T19:50:46.845Z,8.20
2022-11-04T19:56:48.639Z,8.10
2022-11-04T20:02:51.407Z,8.00
2022-11-04T20:08:53.161Z,7.80
2022-11-04T20:14:56.554Z,7.80
2022-11-04T20:20:58.412Z,7.70
2022-11-04T20:27:00.305Z,7.60
2022-11-04T20:33:02.583Z,7.50
2022-11-04T20:39:18.981Z,7.40
2022-11-04T20:45:21.275Z,7.30
2022-11-04T20:51:28.687Z,7.10
2022-11-04T20:57:30.522Z,7.00
2022-11-04T21:03:32.356Z,6.90
2022-11-04T21:09:34.220Z,6.80
2022-11-04T21:15:42.166Z,6.60
2022-11-04T21:21:45.131Z,6.50
2022-11-04T21:27:46.989Z,6.30
2022-11-04T21:33:48.845Z,6.20
2022-11-04T21:39:50.719Z,6.10
2022-11-04T21:45:52.522Z,6.20
2022-11-04T21:51:54.395Z,6.20
2022-11-04T21:57:56.218Z,6.20
2022-11-04T22:04:00.183Z,6.20
2022-11-04T22:10:02.315Z,6.30
2022-11-04T22:23:52.686Z,6.40
2022-11-04T22:29:54.523Z,6.50
2022-11-04T22:35:56.302Z,6.50
2022-11-04T22:41:58.090Z,6.40
2022-11-04T22:47:59.871Z,6.40
2022-11-04T22:54:06.687Z,6.40
2022-11-04T23:00:11.796Z,6.40
2022-11-04T23:06:14.970Z,6.40
2022-11-04T23:12:35.267Z,6.40
2022-11-04T23:18:43.032Z,6.50
2022-11-04T23:25:03.556Z,6.50
2022-11-04T23:31:05.629Z,6.60
2022-11-04T23:37:11.997Z,6.60
2022-11-04T23:43:14.056Z,6.80
2022-11-04T23:49:34.586Z,6.90
2022-11-04T23:55:55.112Z,6.90
